Time;durP1;ratioP1;P1;durP2;ratioP2;P2;SDS_P1;SDS_P2;PMS_P1;PMS_P2;Temp;Humidity;BMP_temperature;BMP_pressure;BME280_temperature;BME280_humidity;BME280_pressure;Samples;Min_cycle;Max_cycle;Signal;HPM_P1;HPM_P2
2022/09/09 00:01:41;;;;;;;15.20;2.28;;;;;;;17.64;100.00;99800.91;7386659;19;20006;-80
2022/09/09 00:04:12;;;;;;;11.52;1.83;;;;;;;17.65;100.00;99803.34;7386542;19;20318;-81
2022/09/09 00:06:46;;;;;;;13.52;2.78;;;;;;;17.64;100.00;99806.22;7386091;19;20015;-81
2022/09/09 00:09:17;;;;;;;9.65;2.55;;;;;;;17.63;100.00;99794.78;7384430;19;20043;-81
2022/09/09 00:11:50;;;;;;;11.48;1.90;;;;;;;17.61;100.00;99794.19;7386984;19;20034;-80
2022/09/09 00:14:32;;;;;;;15.35;1.90;;;;;;;17.61;100.00;99791.53;7384358;19;20019;-81
2022/09/09 00:17:36;;;;;;;19.67;1.77;;;;;;;17.62;100.00;99792.34;7384074;19;20379;-81
2022/09/09 00:20:14;;;;;;;13.50;2.00;;;;;;;17.60;100.00;99792.56;7384310;19;20015;-80
2022/09/09 00:23:01;;;;;;;21.13;3.83;;;;;;;17.57;100.00;99785.00;7384108;19;20417;-80
2022/09/09 00:25:36;;;;;;;12.82;2.90;;;;;;;17.59;100.00;99787.44;7387607;19;20622;-80
2022/09/09 00:28:11;;;;;;;16.52;2.35;;;;;;;17.60;100.00;99786.44;7380267;19;20025;-81
2022/09/09 00:30:41;;;;;;;11.55;1.92;;;;;;;17.59;100.00;99790.94;7383698;19;20048;-81
2022/09/09 00:33:14;;;;;;;10.82;1.45;;;;;;;17.58;100.00;99788.47;7385561;19;20092;-81
2022/09/09 00:35:48;;;;;;;14.63;1.90;;;;;;;17.57;100.00;99793.00;7383994;19;20022;-81
2022/09/09 00:38:25;;;;;;;15.45;2.08;;;;;;;17.60;100.00;99794.41;7380281;19;20054;-81
2022/09/09 00:40:59;;;;;;;10.32;2.00;;;;;;;17.61;100.00;99785.41;7383062;19;20036;-81
2022/09/09 00:43:29;;;;;;;16.08;1.50;;;;;;;17.62;100.00;99787.84;7382170;19;20495;-80
2022/09/09 00:45:58;;;;;;;14.98;1.98;;;;;;;17.60;100.00;99781.94;7384390;19;20014;-81
2022/09/09 00:48:39;;;;;;;10.35;1.42;;;;;;;17.60;100.00;99779.28;7382542;19;20496;-81
2022/09/09 00:51:17;;;;;;;9.38;1.42;;;;;;;17.61;100.00;99788.88;7385539;19;20014;-80
2022/09/09 00:53:51;;;;;;;10.65;1.38;;;;;;;17.62;100.00;99782.53;7383365;19;20082;-80
2022/09/09 00:56:25;;;;;;;34.58;13.27;;;;;;;17.64;100.00;99792.91;7386827;19;20013;-81
2022/09/09 00:59:06;;;;;;;10.27;2.42;;;;;;;17.66;100.00;99789.00;7383056;19;20408;-81
2022/09/09 01:01:35;;;;;;;6.68;2.13;;;;;;;17.69;100.00;99782.41;7383470;19;20365;-80
2022/09/09 01:04:16;;;;;;;10.82;1.35;;;;;;;17.67;100.00;99780.00;7382703;19;20022;-81
2022/09/09 01:06:52;;;;;;;10.02;1.10;;;;;;;17.66;100.00;99770.38;7384879;19;20361;-80
2022/09/09 01:09:23;;;;;;;9.38;2.05;;;;;;;17.66;100.00;99778.38;7382240;19;20014;-80
2022/09/09 01:11:56;;;;;;;12.95;2.53;;;;;;;17.67;100.00;99772.03;7384034;19;20025;-80
2022/09/09 01:14:30;;;;;;;11.27;1.45;;;;;;;17.67;100.00;99768.53;7382277;19;20014;-80
2022/09/09 01:17:05;;;;;;;11.77;1.00;;;;;;;17.69;100.00;99769.13;7382134;19;20031;-80
2022/09/09 01:19:39;;;;;;;6.05;0.98;;;;;;;17.69;100.00;99767.28;7384887;19;20479;-81
2022/09/09 01:22:17;;;;;;;12.43;1.60;;;;;;;17.69;100.00;99763.78;7384121;19;20226;-80
2022/09/09 01:24:56;;;;;;;9.18;0.90;;;;;;;17.69;100.00;99769.13;7382894;19;20015;-80
2022/09/09 01:27:24;;;;;;;11.38;1.58;;;;;;;17.68;100.00;99778.13;7380559;19;20484;-80
2022/09/09 01:29:52;;;;;;;11.68;1.50;;;;;;;17.67;100.00;99768.53;7381711;19;20023;-80
2022/09/09 01:32:24;;;;;;;6.78;0.82;;;;;;;17.68;100.00;99770.97;7385553;19;20025;-80
2022/09/09 01:34:52;;;;;;;10.20;1.23;;;;;;;17.66;100.00;99764.25;7393374;19;20015;-82
2022/09/09 01:37:20;;;;;;;13.57;2.22;;;;;;;17.66;100.00;99764.25;7389297;19;20046;-80
2022/09/09 01:39:48;;;;;;;10.38;1.00;;;;;;;17.62;100.00;99763.91;7392897;19;20530;-81
2022/09/09 01:42:17;;;;;;;10.27;1.38;;;;;;;17.62;100.00;99766.56;7383861;19;20309;-81
2022/09/09 01:44:45;;;;;;;10.50;1.48;;;;;;;17.64;100.00;99761.81;7386830;19;20022;-81
2022/09/09 01:47:15;;;;;;;13.07;2.22;;;;;;;17.67;100.00;99769.38;7388724;19;20014;-81
2022/09/09 01:49:42;;;;;;;8.45;0.88;;;;;;;17.66;100.00;99754.44;7384876;19;20018;-80
2022/09/09 01:52:10;;;;;;;7.93;1.23;;;;;;;17.65;100.00;99766.09;7391141;19;20403;-80
2022/09/09 01:54:37;;;;;;;11.15;1.75;;;;;;;17.66;100.00;99764.25;7387314;19;20406;-79
2022/09/09 01:57:10;;;;;;;11.90;1.67;;;;;;;17.65;100.00;99765.28;7388107;19;20010;-80
2022/09/09 01:59:38;;;;;;;19.17;8.15;;;;;;;17.65;100.00;99763.44;7390590;19;20098;-79
2022/09/09 02:02:09;;;;;;;7.05;1.52;;;;;;;17.67;100.00;99768.53;7389060;19;20022;-79
2022/09/09 02:04:40;;;;;;;;;;;;;;;17.68;100.00;99770.16;7386821;19;20018;-79
2022/09/09 02:07:22;;;;;;;13.05;1.90;;;;;;;17.63;100.00;99768.16;7388563;19;20287;-80
2022/09/09 02:09:57;;;;;;;8.35;1.67;;;;;;;17.62;100.00;99763.91;7386499;19;20478;-79
2022/09/09 02:12:26;;;;;;;8.00;2.42;;;;;;;17.63;100.00;99764.69;7382780;19;20019;-79
2022/09/09 02:15:01;;;;;;;7.03;1.65;;;;;;;17.63;100.00;99762.84;7386202;19;20043;-79
2022/09/09 02:17:35;;;;;;;13.38;1.80;;;;;;;17.64;100.00;99761.00;7390093;19;20018;-79
2022/09/09 02:20:09;;;;;;;14.82;1.88;;;;;;;17.60;100.00;99763.31;7390383;19;20090;-81
2022/09/09 02:22:40;;;;;;;14.95;2.25;;;;;;;17.61;100.00;99761.47;7387805;19;20021;-80
2022/09/09 02:25:10;;;;;;;13.23;1.98;;;;;;;17.60;100.00;99767.81;7388417;19;20499;-81
2022/09/09 02:27:36;;;;;;;8.25;1.55;;;;;;;17.61;100.00;99772.09;7384547;19;20006;-81
2022/09/09 02:30:04;;;;;;;17.50;1.92;;;;;;;17.62;100.00;99773.72;7387666;19;20011;-80
2022/09/09 02:32:33;;;;;;;9.13;2.17;;;;;;;17.63;100.00;99767.34;7388223;19;20028;-80
2022/09/09 02:35:04;;;;;;;9.88;2.78;;;;;;;17.62;100.00;99771.88;7386667;19;20014;-81
2022/09/09 02:37:35;;;;;;;21.77;2.70;;;;;;;17.64;100.00;99774.28;7388919;19;20010;-80
2022/09/09 02:40:05;;;;;;;12.60;2.33;;;;;;;17.64;100.00;99772.44;7391337;19;20209;-80
2022/09/09 02:42:38;;;;;;;13.32;2.30;;;;;;;17.63;100.00;99768.16;7384924;19;20022;-80
2022/09/09 02:45:07;;;;;;;11.13;1.55;;;;;;;17.64;100.00;99772.44;7384700;19;20021;-79
2022/09/09 02:47:36;;;;;;;11.60;2.45;;;;;;;17.65;100.00;99773.28;7387912;19;20010;-80
2022/09/09 02:50:09;;;;;;;9.55;1.95;;;;;;;17.66;100.00;99785.53;7387410;19;20502;-81
2022/09/09 02:52:37;;;;;;;10.20;1.90;;;;;;;17.67;100.00;99776.53;7384506;19;20018;-80
2022/09/09 02:55:08;;;;;;;11.23;2.25;;;;;;;17.66;100.00;99781.03;7376706;19;20021;-80
2022/09/09 02:57:36;;;;;;;10.43;1.58;;;;;;;17.67;100.00;99777.34;7380655;19;20053;-80
2022/09/09 03:00:05;;;;;;;15.60;2.05;;;;;;;17.65;100.00;99768.75;7389984;19;20027;-79
2022/09/09 03:02:32;;;;;;;16.55;3.03;;;;;;;17.65;100.00;99790.03;7386304;19;20097;-79
2022/09/09 03:05:00;;;;;;;24.77;7.85;;;;;;;17.64;100.00;99777.78;7386850;19;20006;-81
2022/09/09 03:07:28;;;;;;;20.05;2.72;;;;;;;17.66;100.00;99782.88;7388042;19;20114;-82
2022/09/09 03:09:55;;;;;;;18.38;2.33;;;;;;;17.63;100.00;99783.31;7388118;19;20345;-81
2022/09/09 03:12:23;;;;;;;12.00;2.45;;;;;;;17.65;100.00;99786.56;7386714;19;20094;-80
2022/09/09 03:14:51;;;;;;;11.82;2.08;;;;;;;17.63;100.00;99793.94;7383075;19;20021;-80
2022/09/09 03:17:18;;;;;;;11.98;1.95;;;;;;;17.61;100.00;99788.88;7385784;19;20018;-80
2022/09/09 03:19:45;;;;;;;8.70;1.60;;;;;;;17.61;100.00;99788.06;7387649;19;20123;-79
2022/09/09 03:22:13;;;;;;;11.52;1.88;;;;;;;17.60;100.00;99784.59;7388024;19;20122;-80
2022/09/09 03:24:40;;;;;;;9.52;1.95;;;;;;;17.59;100.00;99787.44;7388284;19;20045;-81
2022/09/09 03:27:06;;;;;;;11.00;1.70;;;;;;;17.58;100.00;99783.97;7387705;19;20344;-80
2022/09/09 03:29:34;;;;;;;9.65;2.00;;;;;;;17.57;100.00;99786.88;7385729;19;20018;-80
2022/09/09 03:32:01;;;;;;;17.63;2.50;;;;;;;17.56;100.00;99790.56;7384966;19;20015;-80
2022/09/09 03:34:29;;;;;;;13.32;2.15;;;;;;;17.57;100.00;99792.19;7385469;19;20018;-80
2022/09/09 03:36:56;;;;;;;9.60;1.55;;;;;;;17.57;100.00;99784.19;7386234;19;20085;-81
2022/09/09 03:39:24;;;;;;;11.85;2.20;;;;;;;17.59;100.00;99793.59;7386152;19;20014;-79
2022/09/09 03:44:19;;;;;;;8.57;1.73;;;;;;;17.60;100.00;99799.72;7382751;19;20376;-81
2022/09/09 03:46:47;;;;;;;9.20;1.70;;;;;;;17.59;100.00;99801.56;7386521;19;20037;-80
2022/09/09 03:49:15;;;;;;;10.15;1.65;;;;;;;17.58;100.00;99799.91;7384625;19;20010;-79
2022/09/09 03:51:42;;;;;;;8.95;1.33;;;;;;;17.56;100.00;99809.19;7386564;19;20022;-81
2022/09/09 03:54:10;;;;;;;8.13;1.45;;;;;;;17.54;100.00;99809.38;7382902;19;20102;-81
2022/09/09 03:56:37;;;;;;;14.77;2.85;;;;;;;17.55;100.00;99808.34;7385135;19;20024;-81
2022/09/09 03:59:05;;;;;;;7.28;1.35;;;;;;;17.57;100.00;99808.16;7379335;19;20007;-80
2022/09/09 04:01:52;;;;;;;8.20;1.38;;;;;;;17.57;100.00;99824.09;7386727;19;20017;-80
2022/09/09 04:04:33;;;;;;;9.18;1.27;;;;;;;17.55;100.00;99811.03;7382443;19;20007;-81
2022/09/09 04:07:01;;;;;;;6.97;1.08;;;;;;;17.54;100.00;99820.84;7386861;19;20018;-80
2022/09/09 04:09:27;;;;;;;8.32;1.33;;;;;;;17.54;100.00;99817.38;7384280;19;20015;-82
2022/09/09 04:11:54;;;;;;;11.43;3.03;;;;;;;17.52;100.00;99820.25;7385381;19;20460;-81
2022/09/09 04:14:35;;;;;;;8.18;1.15;;;;;;;17.52;100.00;99832.75;7379614;19;20014;-81
2022/09/09 04:17:06;;;;;;;6.63;1.13;;;;;;;17.51;100.00;99828.47;7384734;19;20078;-81
2022/09/09 04:19:33;;;;;;;7.30;1.70;;;;;;;17.51;100.00;99823.97;7383614;19;20025;-80
2022/09/09 04:22:00;;;;;;;11.02;1.42;;;;;;;17.50;100.00;99824.19;7385467;19;20370;-80
2022/09/09 04:24:28;;;;;;;6.20;1.02;;;;;;;17.48;100.00;99827.06;7384073;19;20018;-80
2022/09/09 04:26:56;;;;;;;5.18;1.00;;;;;;;17.49;100.00;99828.69;7384113;19;20376;-80
2022/09/09 04:29:24;;;;;;;8.30;1.10;;;;;;;17.49;100.00;99823.34;7381888;19;20396;-80
2022/09/09 04:31:53;;;;;;;9.25;1.42;;;;;;;17.50;100.00;99830.31;7384073;19;20551;-80
2022/09/09 04:34:21;;;;;;;10.63;1.65;;;;;;;17.51;100.00;99833.78;7383243;19;20039;-80
2022/09/09 04:36:48;;;;;;;5.55;1.70;;;;;;;17.51;100.00;99834.59;7385251;19;20019;-81
2022/09/09 04:39:15;;;;;;;7.35;1.63;;;;;;;17.51;100.00;99836.44;7382234;19;20391;-81
2022/09/09 04:41:42;;;;;;;8.68;1.40;;;;;;;17.51;100.00;99839.09;7384367;19;20039;-80
2022/09/09 04:44:09;;;;;;;11.07;2.15;;;;;;;17.51;100.00;99842.59;7379258;19;20498;-81
2022/09/09 04:46:37;;;;;;;7.95;1.60;;;;;;;17.53;100.00;99845.81;7380954;19;20018;-80
2022/09/09 04:49:05;;;;;;;5.65;1.63;;;;;;;17.54;100.00;99846.63;7385543;19;20355;-82
2022/09/09 04:51:32;;;;;;;8.40;2.20;;;;;;;17.54;100.00;99846.63;7385514;19;20345;-80
2022/09/09 04:53:59;;;;;;;6.55;1.63;;;;;;;17.52;100.00;99841.53;7383949;19;20006;-80
2022/09/09 04:56:28;;;;;;;7.18;1.50;;;;;;;17.54;100.00;99850.09;7385043;19;20365;-81
2022/09/09 04:58:55;;;;;;;13.18;1.80;;;;;;;17.53;100.00;99855.63;7377770;19;20060;-81
2022/09/09 05:01:23;;;;;;;5.88;1.60;;;;;;;17.51;100.00;99847.91;7382329;19;20018;-81
2022/09/09 05:03:53;;;;;;;8.48;2.03;;;;;;;17.53;100.00;99851.13;7382257;19;20024;-80
2022/09/09 05:06:22;;;;;;;10.30;1.90;;;;;;;17.54;100.00;99858.09;7385005;19;20010;-81
2022/09/09 05:08:49;;;;;;;8.68;1.75;;;;;;;17.56;100.00;99859.72;7381887;19;20039;-81
2022/09/09 05:11:20;;;;;;;6.10;1.33;;;;;;;17.56;100.00;99867.69;7381889;19;20286;-82
2022/09/09 05:13:47;;;;;;;7.05;1.30;;;;;;;17.55;100.00;99872.22;7382706;19;20010;-79
2022/09/09 05:16:17;;;;;;;8.25;1.70;;;;;;;17.56;100.00;99873.03;7381600;19;20010;-80
2022/09/09 05:18:45;;;;;;;5.78;1.60;;;;;;;17.54;100.00;99873.22;7383145;19;20146;-81
2022/09/09 05:21:15;;;;;;;10.30;2.70;;;;;;;17.54;100.00;99875.91;7383714;19;20010;-81
2022/09/09 05:23:42;;;;;;;7.82;2.00;;;;;;;17.56;100.00;99876.50;7381857;19;20022;-80
2022/09/09 05:26:14;;;;;;;9.35;2.00;;;;;;;17.54;100.00;99886.53;7383069;19;20436;-80
2022/09/09 05:28:43;;;;;;;6.60;1.92;;;;;;;17.55;100.00;99880.19;7380884;19;20546;-82
2022/09/09 05:31:13;;;;;;;5.65;1.40;;;;;;;17.54;100.00;99881.22;7382877;19;20094;-80
2022/09/09 05:33:42;;;;;;;6.03;1.73;;;;;;;17.52;100.00;99891.28;7378374;19;20039;-80
2022/09/09 05:36:13;;;;;;;9.57;1.70;;;;;;;17.52;100.00;99897.38;7384313;19;20057;-80
2022/09/09 05:38:40;;;;;;;8.45;1.85;;;;;;;17.51;100.00;99894.97;7381341;19;20021;-80
2022/09/09 05:41:11;;;;;;;9.45;1.75;;;;;;;17.50;100.00;99896.00;7383003;19;20017;-80
2022/09/09 05:43:38;;;;;;;7.63;1.95;;;;;;;17.50;100.00;99899.47;7380303;19;20011;-80
2022/09/09 05:46:07;;;;;;;10.80;1.75;;;;;;;17.48;100.00;99901.53;7379349;19;20231;-80
2022/09/09 05:48:37;;;;;;;9.50;2.33;;;;;;;17.49;100.00;99910.31;7377815;19;20007;-82
2022/09/09 05:51:08;;;;;;;8.32;2.20;;;;;;;17.49;100.00;99903.16;7381345;19;20022;-80
2022/09/09 05:53:35;;;;;;;10.20;2.38;;;;;;;17.51;100.00;99917.06;7381466;19;20087;-80
2022/09/09 05:56:05;;;;;;;12.25;4.00;;;;;;;17.54;100.00;99910.47;7381141;19;20014;-81
2022/09/09 05:58:34;;;;;;;11.95;2.60;;;;;;;17.56;100.00;99920.91;7379170;19;20054;-81
2022/09/09 06:01:07;;;;;;;9.45;3.10;;;;;;;17.53;100.00;99920.31;7380888;19;20007;-80
2022/09/09 06:03:36;;;;;;;10.57;3.05;;;;;;;17.52;100.00;99926.66;7381181;19;20043;-80
2022/09/09 06:06:06;;;;;;;10.60;2.83;;;;;;;17.52;100.00;99939.16;7381047;19;20374;-80
2022/09/09 06:08:36;;;;;;;9.48;2.47;;;;;;;17.51;100.00;99937.53;7381355;19;20049;-81
2022/09/09 06:11:07;;;;;;;10.63;3.40;;;;;;;17.51;100.00;99938.34;7381862;19;20479;-81
2022/09/09 06:13:37;;;;;;;15.55;3.60;;;;;;;17.51;100.00;99930.38;7379500;19;20082;-81
2022/09/09 06:16:04;;;;;;;9.48;3.05;;;;;;;17.53;100.00;99935.44;7379103;19;20033;-81
2022/09/09 06:18:33;;;;;;;9.20;3.15;;;;;;;17.53;100.00;99944.25;7385218;19;20019;-80
2022/09/09 06:21:04;;;;;;;7.97;3.22;;;;;;;17.52;100.00;99942.63;7388752;19;20039;-80
2022/09/09 06:23:31;;;;;;;8.52;3.38;;;;;;;17.52;100.00;99945.28;7388130;19;20018;-80
2022/09/09 06:26:05;;;;;;;11.18;3.72;;;;;;;17.54;100.00;99955.69;7386898;19;20480;-80
2022/09/09 06:28:33;;;;;;;12.60;4.38;;;;;;;17.53;100.00;99952.22;7385999;19;20484;-80
2022/09/09 06:31:04;;;;;;;10.52;3.65;;;;;;;17.54;100.00;99950.38;7387936;19;20040;-79
2022/09/09 06:33:40;;;;;;;9.98;3.50;;;;;;;17.53;100.00;99952.22;7385929;19;20031;-82
2022/09/09 06:36:14;;;;;;;10.75;3.25;;;;;;;17.51;100.00;99950.84;7389216;19;20086;-78
2022/09/09 06:38:43;;;;;;;11.57;3.40;;;;;;;17.52;100.00;99949.81;7385446;19;20018;-79
2022/09/09 06:41:12;;;;;;;11.45;3.97;;;;;;;17.50;100.00;99952.69;7390114;19;20022;-79
2022/09/09 06:43:39;;;;;;;11.43;4.07;;;;;;;17.48;100.00;99952.06;7383258;19;20034;-80
2022/09/09 06:46:11;;;;;;;13.85;4.20;;;;;;;17.46;100.00;99954.16;7386868;19;20522;-79
2022/09/09 06:51:11;;;;;;;9.95;4.03;;;;;;;17.50;100.00;99963.31;7387335;19;20018;-79
2022/09/09 06:53:40;;;;;;;13.65;3.92;;;;;;;17.52;100.00;99955.91;7387252;19;20483;-78
2022/09/09 06:56:11;;;;;;;10.52;3.97;;;;;;;17.54;100.00;99961.03;7383684;19;20475;-82
2022/09/09 06:58:44;;;;;;;9.18;4.03;;;;;;;17.53;100.00;99959.38;7383863;19;20046;-79
2022/09/09 07:01:14;;;;;;;12.10;4.03;;;;;;;17.52;100.00;99971.88;7382549;19;20103;-79
2022/09/09 07:03:45;;;;;;;10.15;4.07;;;;;;;17.53;100.00;99976.16;7386523;19;20566;-80
2022/09/09 07:06:17;;;;;;;15.57;4.10;;;;;;;17.54;100.00;99979.66;7383407;19;20538;-82
2022/09/09 07:08:48;;;;;;;10.05;3.92;;;;;;;17.56;100.00;99974.13;7388275;19;20093;-80
2022/09/09 07:11:15;;;;;;;10.55;3.60;;;;;;;17.57;100.00;99981.06;7387039;19;20015;-79
2022/09/09 07:13:42;;;;;;;8.63;3.20;;;;;;;17.55;100.00;99986.59;7381689;19;20078;-78
2022/09/09 07:16:12;;;;;;;11.43;3.75;;;;;;;17.55;100.00;99986.59;7390014;19;20495;-78
2022/09/09 07:18:40;;;;;;;12.52;3.83;;;;;;;17.54;100.00;99996.44;7384673;19;20010;-78
2022/09/09 07:21:09;;;;;;;10.07;3.83;;;;;;;17.53;99.46;100001.97;7389169;19;20069;-78
2022/09/09 07:23:36;;;;;;;5.57;2.95;;;;;;;17.51;99.11;100009.34;7385419;19;20019;-81
2022/09/09 07:26:09;;;;;;;8.05;2.83;;;;;;;17.49;98.34;100003.44;7390572;19;20138;-80
2022/09/09 07:28:37;;;;;;;7.30;2.85;;;;;;;17.48;98.45;100010.59;7384314;19;20024;-79
2022/09/09 07:31:06;;;;;;;8.40;2.85;;;;;;;17.50;98.55;100018.38;7384953;19;20074;-82
2022/09/09 07:33:35;;;;;;;7.13;2.92;;;;;;;17.49;98.13;100012.22;7384895;19;20098;-82
2022/09/09 07:36:05;;;;;;;10.02;4.55;;;;;;;17.52;98.27;100018.97;7387529;19;20017;-82
2022/09/09 07:38:40;;;;;;;6.28;2.97;;;;;;;17.54;98.10;100022.22;7383819;19;20092;-81
2022/09/09 07:41:11;;;;;;;8.20;3.05;;;;;;;17.52;97.88;100022.41;7388603;19;20305;-81
2022/09/09 07:43:40;;;;;;;7.05;2.72;;;;;;;17.53;97.60;100037.34;7384339;19;20014;-82
2022/09/09 07:46:09;;;;;;;6.43;2.45;;;;;;;17.51;97.08;100033.31;7384014;19;20021;-81
2022/09/09 07:48:37;;;;;;;10.38;2.80;;;;;;;17.53;97.52;100040.03;7380039;19;20006;-81
2022/09/09 07:51:11;;;;;;;9.60;3.45;;;;;;;17.54;97.37;100044.31;7383387;19;20018;-81
2022/09/09 07:53:39;;;;;;;6.70;2.65;;;;;;;17.57;97.71;100040.41;7386494;19;20015;-81
2022/09/09 07:56:11;;;;;;;9.57;3.22;;;;;;;17.61;97.87;100043.47;7383350;19;20576;-81
2022/09/09 07:58:40;;;;;;;9.90;2.58;;;;;;;17.62;97.72;100051.25;7382485;19;20014;-81
2022/09/09 08:01:09;;;;;;;6.55;2.35;;;;;;;17.60;96.86;100049.81;7385530;19;20006;-81
2022/09/09 08:03:37;;;;;;;7.03;2.35;;;;;;;17.59;96.12;100050.81;7383258;19;20018;-81
2022/09/09 08:06:06;;;;;;;5.07;2.03;;;;;;;17.60;95.95;100050.66;7384106;19;20015;-81
2022/09/09 08:08:35;;;;;;;4.13;1.98;;;;;;;17.61;95.91;100049.63;7383252;19;20025;-81
2022/09/09 08:11:04;;;;;;;6.95;2.13;;;;;;;17.63;95.76;100052.03;7384389;19;20387;-81
2022/09/09 08:13:32;;;;;;;6.10;2.35;;;;;;;17.63;95.39;100063.50;7382427;19;20195;-82
2022/09/09 08:16:04;;;;;;;8.20;2.40;;;;;;;17.68;95.88;100058.34;7384886;19;20015;-82
2022/09/09 08:18:30;;;;;;;6.65;2.25;;;;;;;17.70;95.70;100063.47;7383392;19;20565;-81
2022/09/09 08:20:57;;;;;;;7.70;3.80;;;;;;;17.74;96.36;100064.63;7384715;19;20436;-81
2022/09/09 08:23:25;;;;;;;7.07;2.85;;;;;;;17.75;96.43;100069.75;7386946;19;20798;-81
2022/09/09 08:25:53;;;;;;;7.97;3.13;;;;;;;17.75;96.14;100082.25;7385559;19;20133;-80
2022/09/09 08:28:20;;;;;;;12.45;4.70;;;;;;;17.76;96.16;100079.38;7383775;19;20343;-81
2022/09/09 08:30:48;;;;;;;8.85;3.33;;;;;;;17.77;96.10;100089.00;7383938;19;20029;-80
2022/09/09 08:33:15;;;;;;;8.48;4.35;;;;;;;17.78;95.63;100092.44;7382638;19;20010;-80
2022/09/09 08:35:52;;;;;;;9.18;4.15;;;;;;;17.77;94.30;100099.63;7380557;19;20497;-81
2022/09/09 08:38:20;;;;;;;8.82;3.80;;;;;;;17.76;94.84;100108.66;7381949;19;20047;-81
2022/09/09 08:40:53;;;;;;;10.48;3.72;;;;;;;17.74;95.20;100107.22;7384641;19;20031;-82
2022/09/09 08:43:21;;;;;;;8.35;3.42;;;;;;;17.70;94.86;100103.38;7383282;19;20025;-83
2022/09/09 08:45:55;;;;;;;8.55;4.07;;;;;;;17.72;94.91;100111.97;7385373;19;20011;-81
2022/09/09 08:48:35;;;;;;;9.43;4.35;;;;;;;17.74;95.01;100121.34;7381414;19;20018;-81
2022/09/09 08:51:07;;;;;;;9.73;3.85;;;;;;;17.75;95.14;100115.00;7383488;19;20031;-81
2022/09/09 08:53:42;;;;;;;8.55;3.75;;;;;;;17.77;95.34;100114.78;7383002;19;20018;-82
2022/09/09 08:56:14;;;;;;;12.52;4.35;;;;;;;17.77;95.41;100118.28;7384499;19;20039;-80
2022/09/09 08:58:48;;;;;;;7.00;3.20;;;;;;;17.80;95.54;100127.66;7382204;19;20855;-80
2022/09/09 09:01:26;;;;;;;9.52;4.63;;;;;;;17.81;95.41;100131.94;7385285;19;20014;-81
2022/09/09 09:04:01;;;;;;;9.48;4.15;;;;;;;17.83;95.93;100132.53;7385087;19;20029;-81
2022/09/09 09:09:02;;;;;;;13.55;5.47;;;;;;;17.84;95.00;100148.28;7382538;19;20015;-80
2022/09/09 09:11:35;;;;;;;12.48;5.50;;;;;;;17.84;95.02;100148.28;7384532;19;20478;-81
2022/09/09 09:14:07;;;;;;;14.20;5.75;;;;;;;17.85;96.07;100141.94;7380860;19;20038;-81
2022/09/09 09:16:45;;;;;;;13.75;6.25;;;;;;;17.85;96.16;100147.28;7384906;19;20006;-81
2022/09/09 09:19:15;;;;;;;13.45;5.88;;;;;;;17.87;96.69;100149.72;7379341;19;20531;-83
2022/09/09 09:21:48;;;;;;;13.88;5.55;;;;;;;17.87;96.11;100153.19;7383935;19;20047;-81
2022/09/09 09:24:19;;;;;;;13.45;6.40;;;;;;;17.90;95.71;100158.09;7382949;19;20018;-81
2022/09/09 09:26:48;;;;;;;;;;;;;;;17.95;95.77;100152.91;7387903;19;20372;-81
2022/09/09 09:29:17;;;;;;;14.60;6.47;;;;;;;17.99;95.68;100158.63;7379457;19;20149;-82
2022/09/09 09:31:51;;;;;;;13.15;6.90;;;;;;;18.00;94.91;100164.75;7384462;19;20027;-82
2022/09/09 09:34:18;;;;;;;15.02;7.32;;;;;;;18.02;94.35;100165.38;7383733;19;20027;-81
2022/09/09 09:36:53;;;;;;;14.85;6.85;;;;;;;18.04;93.98;100174.75;7381027;19;20360;-82
2022/09/09 09:39:26;;;;;;;15.25;6.60;;;;;;;18.08;94.32;100173.28;7382020;19;20031;-82
2022/09/09 09:42:14;;;;;;;12.15;5.95;;;;;;;18.10;94.43;100181.06;7381037;19;20015;-82
2022/09/09 09:44:47;;;;;;;13.80;5.70;;;;;;;18.10;93.91;100178.41;7382376;19;20554;-82
2022/09/09 09:47:17;;;;;;;14.95;6.40;;;;;;;18.12;94.45;100181.66;7379855;19;20030;-81
2022/09/09 09:49:50;;;;;;;15.00;7.30;;;;;;;18.17;94.64;100187.97;7378659;19;20038;-82
2022/09/09 09:52:23;;;;;;;17.35;7.72;;;;;;;18.18;94.22;100184.28;7381662;19;20027;-82
2022/09/09 09:54:52;;;;;;;15.23;6.50;;;;;;;18.21;94.12;100183.00;7389551;19;20194;-82
2022/09/09 09:57:24;;;;;;;15.57;6.40;;;;;;;18.23;93.98;100194.28;7385500;19;20039;-81
2022/09/09 10:00:02;;;;;;;15.73;7.32;;;;;;;18.24;93.82;100195.88;7387962;19;20491;-81
2022/09/09 10:02:38;;;;;;;14.68;7.00;;;;;;;18.23;93.19;100192.44;7389366;19;20085;-81
2022/09/09 10:05:14;;;;;;;15.65;7.22;;;;;;;18.25;92.95;100194.84;7388167;19;20015;-81
2022/09/09 10:07:45;;;;;;;18.10;7.55;;;;;;;18.26;93.80;100201.81;7390760;19;20027;-81
2022/09/09 10:10:22;;;;;;;14.82;7.80;;;;;;;18.28;94.22;100203.25;7389832;19;20026;-82
2022/09/09 10:12:53;;;;;;;17.63;8.30;;;;;;;18.30;94.71;100211.00;7389841;19;20206;-81
2022/09/09 10:15:27;;;;;;;19.67;8.45;;;;;;;18.32;95.49;100203.63;7387915;19;20491;-82
2022/09/09 10:18:04;;;;;;;17.40;8.10;;;;;;;18.34;95.79;100204.19;7389429;19;20524;-82
2022/09/09 10:20:40;;;;;;;25.17;12.00;;;;;;;18.34;95.93;100201.53;7388448;19;20090;-80
2022/09/09 10:23:10;;;;;;;24.90;8.73;;;;;;;18.37;96.24;100209.09;7386185;19;20488;-82
2022/09/09 10:25:48;;;;;;;18.15;8.02;;;;;;;18.36;95.42;100202.13;7391213;19;20089;-81
2022/09/09 10:28:17;;;;;;;17.77;8.32;;;;;;;18.34;94.35;100213.00;7386569;19;20029;-82
2022/09/09 10:30:49;;;;;;;15.00;7.28;;;;;;;18.37;94.38;100211.78;7388298;19;20114;-79
2022/09/09 10:33:28;;;;;;;15.65;7.88;;;;;;;18.38;95.18;100221.41;7390926;19;20035;-80
2022/09/09 10:35:59;;;;;;;17.10;7.55;;;;;;;18.39;96.04;100223.00;7388981;19;20081;-82
2022/09/09 10:38:33;;;;;;;20.17;8.82;;;;;;;18.38;96.70;100218.72;7386334;19;20019;-82
2022/09/09 10:41:19;;;;;;;20.92;8.55;;;;;;;18.37;97.02;100225.91;7387903;19;20133;-82
2022/09/09 10:43:49;;;;;;;21.40;8.43;;;;;;;18.36;97.63;100229.59;7379508;19;20007;-82
2022/09/09 10:46:20;;;;;;;19.02;8.68;;;;;;;18.36;97.76;100234.09;7384024;19;20027;-82
2022/09/09 10:48:53;;;;;;;18.75;8.88;;;;;;;18.34;98.06;100230.84;7386778;19;20026;-82
2022/09/09 10:51:28;;;;;;;15.85;7.35;;;;;;;18.33;97.99;100232.72;7385006;19;20404;-81
2022/09/09 10:53:59;;;;;;;13.45;7.72;;;;;;;18.31;98.12;100228.63;7385992;19;20014;-80
2022/09/09 10:56:29;;;;;;;15.93;7.35;;;;;;;18.32;98.43;100224.94;7385599;19;20018;-80
2022/09/09 10:58:59;;;;;;;17.08;7.88;;;;;;;18.35;98.43;100227.97;7384026;19;20653;-80
2022/09/09 11:01:34;;;;;;;15.52;7.22;;;;;;;18.35;98.44;100222.63;7390885;19;20014;-82
2022/09/09 11:04:09;;;;;;;13.90;6.25;;;;;;;18.37;97.98;100225.09;7381073;19;20010;-80
2022/09/09 11:06:42;;;;;;;15.20;5.88;;;;;;;18.42;97.80;100230.56;7386002;19;20346;-82
2022/09/09 11:09:18;;;;;;;12.77;6.13;;;;;;;18.45;98.03;100222.13;7387677;19;20383;-80
2022/09/09 11:11:50;;;;;;;13.45;5.95;;;;;;;18.52;98.19;100225.56;7388243;19;20029;-81
2022/09/09 11:14:24;;;;;;;13.32;4.90;;;;;;;18.58;97.56;100223.91;7382510;19;20014;-81
2022/09/09 11:16:57;;;;;;;8.48;4.63;;;;;;;18.63;97.22;100229.38;7384446;19;20343;-82
2022/09/09 11:19:34;;;;;;;8.35;3.92;;;;;;;18.65;96.54;100232.63;7387720;19;20011;-81
2022/09/09 11:22:06;;;;;;;9.48;4.00;;;;;;;18.67;95.81;100234.06;7386461;19;20014;-82
2022/09/09 11:24:40;;;;;;;11.20;3.78;;;;;;;18.71;95.58;100239.75;7385915;19;20070;-82
2022/09/09 11:27:12;;;;;;;9.48;3.75;;;;;;;18.75;96.11;100230.28;7385095;19;20034;-82
2022/09/09 11:29:47;;;;;;;8.68;4.22;;;;;;;18.77;95.98;100238.88;7387448;19;20578;-80
2022/09/09 11:32:48;;;;;;;11.48;4.70;;;;;;;18.81;96.19;100240.06;7385873;19;20036;-81
2022/09/09 11:35:35;;;;;;;10.77;3.97;;;;;;;18.83;95.43;100238.00;7385389;19;20388;-81
2022/09/09 11:38:14;;;;;;;5.10;2.75;;;;;;;18.85;94.51;100245.75;7384782;19;20380;-81
2022/09/09 11:40:42;;;;;;;5.32;2.72;;;;;;;18.89;93.26;100244.31;7385793;19;20027;-81
2022/09/09 11:43:17;;;;;;;4.40;2.30;;;;;;;18.94;92.87;100231.94;7382204;19;20011;-82
2022/09/09 11:45:53;;;;;;;9.32;2.83;;;;;;;19.05;93.74;100238.34;7386544;19;20074;-81
2022/09/09 11:48:36;;;;;;;5.70;2.67;;;;;;;19.11;92.45;100240.13;7385344;19;20110;-81